Time;durP1;ratioP1;P1;durP2;ratioP2;P2;SDS_P1;SDS_P2;PMS_P1;PMS_P2;Temp;Humidity;BMP_temperature;BMP_pressure;BME280_temperature;BME280_humidity;BME280_pressure;Samples;Min_cycle;Max_cycle;Signal;HPM_P1;HPM_P2
2023/06/17 00:00:59;;;;;;;10.13;7.97;;;15.90;97.10;;;;;;5031729;28;20049;-64
2023/06/17 00:03:25;;;;;;;11.10;8.75;;;15.90;97.80;;;;;;5013403;28;20076;-64
2023/06/17 00:05:53;;;;;;;9.50;8.15;;;15.80;98.30;;;;;;5032066;28;20052;-64
2023/06/17 00:08:20;;;;;;;9.77;7.82;;;15.80;99.00;;;;;;5031576;28;20037;-64
2023/06/17 00:10:45;;;;;;;10.05;8.60;;;15.70;99.50;;;;;;5031807;28;20041;-64
2023/06/17 00:13:12;;;;;;;10.85;8.75;;;15.70;99.90;;;;;;5031733;28;20095;-64
2023/06/17 00:15:38;;;;;;;11.73;8.35;;;15.70;99.90;;;;;;5031816;28;20041;-64
2023/06/17 00:18:05;;;;;;;10.43;8.70;;;15.70;99.90;;;;;;5031160;28;20045;-64
2023/06/17 00:20:32;;;;;;;13.25;9.07;;;15.60;99.90;;;;;;5014192;28;20037;-64
2023/06/17 00:22:58;;;;;;;10.25;8.77;;;15.60;99.90;;;;;;5031255;28;20488;-64
2023/06/17 00:25:23;;;;;;;11.02;8.77;;;15.60;99.90;;;;;;5031434;28;20087;-64
2023/06/17 00:27:49;;;;;;;11.98;9.07;;;15.60;99.90;;;;;;5031615;28;20183;-64
2023/06/17 00:30:15;;;;;;;12.25;8.60;;;15.50;99.90;;;;;;5031536;28;20040;-64
2023/06/17 00:32:41;;;;;;;11.85;8.93;;;15.30;99.90;;;;;;5017188;28;20049;-64
2023/06/17 00:35:07;;;;;;;12.38;8.80;;;15.40;99.90;;;;;;5017644;28;20045;-64
2023/06/17 00:37:33;;;;;;;10.38;8.98;;;15.30;99.90;;;;;;5018085;28;20045;-64
2023/06/17 00:39:58;;;;;;;11.77;8.90;;;15.30;99.90;;;;;;5017981;28;20041;-64
2023/06/17 00:42:24;;;;;;;11.07;9.20;;;15.30;99.90;;;;;;5017817;28;20502;-64
2023/06/17 00:44:50;;;;;;;14.23;10.13;;;15.20;99.90;;;;;;5034891;28;20045;-65
2023/06/17 00:47:15;;;;;;;14.57;10.38;;;15.10;99.90;;;;;;5035416;28;20041;-64
2023/06/17 00:49:44;;;;;;;10.98;9.18;;;15.10;99.90;;;;;;5035206;28;20038;-64
2023/06/17 00:52:11;;;;;;;14.02;9.80;;;15.10;99.90;;;;;;5035325;28;20530;-64
2023/06/17 00:54:38;;;;;;;12.68;9.57;;;15.10;99.90;;;;;;5035087;28;20613;-64
2023/06/17 00:57:09;;;;;;;12.38;9.73;;;15.00;99.90;;;;;;5035434;28;20494;-65
2023/06/17 00:59:37;;;;;;;13.15;9.93;;;15.10;99.90;;;;;;5034248;28;20107;-64
2023/06/17 01:02:04;;;;;;;13.00;10.07;;;15.10;99.90;;;;;;5035320;28;20399;-64
2023/06/17 01:04:31;;;;;;;13.38;10.73;;;15.10;99.90;;;;;;5016863;28;20033;-64
2023/06/17 01:07:23;;;;;;;12.52;9.85;;;15.10;99.90;;;;;;5035266;28;20120;-64
2023/06/17 01:10:01;;;;;;;15.07;10.70;;;15.10;99.90;;;;;;5017595;28;20511;-65
2023/06/17 01:12:29;;;;;;;12.13;9.63;;;15.10;99.90;;;;;;5034951;28;20056;-64
2023/06/17 01:14:57;;;;;;;12.80;10.32;;;15.00;99.90;;;;;;5034938;28;20037;-64
2023/06/17 01:17:25;;;;;;;13.80;11.18;;;15.00;99.90;;;;;;5034111;28;20046;-64
2023/06/17 01:19:52;;;;;;;13.10;10.13;;;15.00;99.90;;;;;;5016713;28;20053;-64
2023/06/17 01:22:18;;;;;;;13.88;10.85;;;14.90;99.90;;;;;;5034773;28;20543;-64
2023/06/17 01:24:46;;;;;;;12.73;11.05;;;14.90;99.90;;;;;;5016871;28;20034;-64
2023/06/17 01:27:12;;;;;;;13.55;11.23;;;14.90;99.90;;;;;;5034757;28;20033;-64
2023/06/17 01:29:38;;;;;;;16.80;11.70;;;14.90;99.90;;;;;;5034792;28;20236;-64
2023/06/17 01:32:06;;;;;;;14.30;12.13;;;14.90;99.90;;;;;;5034818;28;20112;-64
2023/06/17 01:34:48;;;;;;;18.00;13.18;;;14.90;99.90;;;;;;5016493;28;20041;-64
2023/06/17 01:37:17;;;;;;;14.60;12.38;;;15.00;99.90;;;;;;5034539;28;20045;-64
2023/06/17 01:39:45;;;;;;;18.83;12.80;;;15.00;99.90;;;;;;5016678;28;20045;-64
2023/06/17 01:42:20;;;;;;;18.13;12.32;;;15.10;99.90;;;;;;5034407;28;20041;-64
2023/06/17 01:44:47;;;;;;;19.52;12.77;;;15.10;99.90;;;;;;5034294;28;20176;-64
2023/06/17 01:47:12;;;;;;;17.00;12.40;;;15.20;99.90;;;;;;5034460;28;20038;-64
2023/06/17 01:49:38;;;;;;;20.80;14.32;;;15.40;99.90;;;;;;5034155;28;20049;-64
2023/06/17 01:52:04;;;;;;;20.00;14.18;;;15.50;99.90;;;;;;5033955;28;20060;-64
2023/06/17 01:54:30;;;;;;;19.23;14.32;;;15.60;99.90;;;;;;5034020;28;20116;-64
2023/06/17 01:56:56;;;;;;;19.60;14.48;;;15.70;99.90;;;;;;5016771;28;20187;-64
2023/06/17 01:59:21;;;;;;;20.92;14.82;;;15.70;99.90;;;;;;5033795;28;20037;-64
2023/06/17 02:01:47;;;;;;;21.83;14.65;;;15.80;99.90;;;;;;5032491;28;20040;-64
2023/06/17 02:04:13;;;;;;;22.42;16.15;;;15.80;99.90;;;;;;5025041;28;20048;-64
2023/06/17 02:06:39;;;;;;;21.52;14.77;;;15.90;99.90;;;;;;5033489;28;20081;-64
2023/06/17 02:09:05;;;;;;;20.67;15.32;;;16.00;99.90;;;;;;5033963;28;20407;-64
2023/06/17 02:11:31;;;;;;;25.50;16.40;;;16.00;99.90;;;;;;5033948;28;20038;-64
2023/06/17 02:13:56;;;;;;;22.77;14.93;;;16.10;99.90;;;;;;5033618;28;20510;-64
2023/06/17 02:16:23;;;;;;;24.20;15.80;;;16.10;99.90;;;;;;5033458;28;20127;-64
2023/06/17 02:18:52;;;;;;;24.60;15.48;;;16.10;99.90;;;;;;5033315;28;20507;-63
2023/06/17 02:21:18;;;;;;;24.13;16.33;;;16.20;99.90;;;;;;5033593;28;20514;-64
2023/06/17 02:23:48;;;;;;;26.63;16.90;;;16.20;99.90;;;;;;5032817;28;20037;-64
2023/06/17 02:26:17;;;;;;;28.05;18.08;;;16.30;99.90;;;;;;5033890;28;20376;-63
2023/06/17 02:28:43;;;;;;;28.38;18.67;;;16.30;99.90;;;;;;5033540;28;20404;-63
2023/06/17 02:31:09;;;;;;;31.38;20.27;;;16.30;99.90;;;;;;5033117;28;20048;-64
2023/06/17 02:33:35;;;;;;;28.58;18.67;;;16.30;99.90;;;;;;5015329;28;20037;-64
2023/06/17 02:36:01;;;;;;;32.22;19.90;;;16.30;99.90;;;;;;5033562;28;20099;-64
2023/06/17 02:38:28;;;;;;;30.17;19.15;;;16.30;99.90;;;;;;5033629;28;20268;-63
2023/06/17 02:40:54;;;;;;;28.90;19.23;;;16.20;99.90;;;;;;5032812;28;20121;-64
2023/06/17 02:43:19;;;;;;;29.60;18.13;;;16.20;99.90;;;;;;5033178;28;20482;-64
2023/06/17 02:45:45;;;;;;;32.97;18.67;;;16.20;99.90;;;;;;5032957;28;20099;-64
2023/06/17 02:48:10;;;;;;;31.38;20.27;;;16.20;99.90;;;;;;5033198;28;20034;-64
2023/06/17 02:50:36;;;;;;;30.85;19.15;;;16.20;99.90;;;;;;5033199;28;20034;-63
2023/06/17 02:53:04;;;;;;;25.50;19.25;;;16.20;99.90;;;;;;5033318;28;20031;-64
2023/06/17 02:55:30;;;;;;;29.75;19.15;;;16.20;99.90;;;;;;5032325;28;20088;-64
2023/06/17 02:57:56;;;;;;;25.60;17.63;;;16.10;99.90;;;;;;5033098;28;20072;-64
2023/06/17 03:00:21;;;;;;;31.00;19.35;;;16.10;99.90;;;;;;5015046;28;20450;-64
2023/06/17 03:02:48;;;;;;;26.77;19.25;;;16.10;99.90;;;;;;5032926;28;20033;-64
2023/06/17 03:05:14;;;;;;;28.52;19.40;;;16.00;99.90;;;;;;5032843;28;20033;-64
2023/06/17 03:07:40;;;;;;;29.55;19.88;;;16.10;99.90;;;;;;5033077;28;20037;-64
2023/06/17 03:10:07;;;;;;;28.92;20.15;;;16.10;99.90;;;;;;5032904;28;20034;-64
2023/06/17 03:12:33;;;;;;;31.27;19.45;;;16.10;99.90;;;;;;5032742;28;20037;-64
2023/06/17 03:14:58;;;;;;;31.25;19.95;;;16.20;99.90;;;;;;5032457;28;20086;-64
2023/06/17 03:17:24;;;;;;;31.73;19.52;;;16.20;99.90;;;;;;5032650;28;20252;-64
2023/06/17 03:19:51;;;;;;;29.10;20.52;;;16.20;99.90;;;;;;5032940;28;20045;-64
2023/06/17 03:22:16;;;;;;;30.02;20.58;;;16.20;99.90;;;;;;5032663;28;20048;-64
2023/06/17 03:24:42;;;;;;;29.80;20.00;;;16.10;99.90;;;;;;5032395;28;20033;-64
2023/06/17 03:27:08;;;;;;;32.33;21.58;;;16.10;99.90;;;;;;5032468;28;20037;-64
2023/06/17 03:29:36;;;;;;;29.08;20.30;;;16.10;99.90;;;;;;4998385;28;20034;-64
2023/06/17 03:32:02;;;;;;;27.77;20.15;;;16.10;99.90;;;;;;5032498;28;20038;-64
2023/06/17 03:34:27;;;;;;;32.10;19.90;;;16.10;99.90;;;;;;5032149;28;20103;-64
2023/06/17 03:36:53;;;;;;;33.75;20.50;;;16.10;99.90;;;;;;5032544;28;20071;-64
2023/06/17 03:39:19;;;;;;;32.35;20.20;;;16.10;99.90;;;;;;5032417;28;20438;-64
2023/06/17 03:41:45;;;;;;;34.47;22.17;;;16.00;99.90;;;;;;5032241;28;20392;-64
2023/06/17 03:44:10;;;;;;;31.27;21.33;;;16.10;99.90;;;;;;5031945;28;20084;-64
2023/06/17 03:46:36;;;;;;;31.73;20.65;;;16.10;99.90;;;;;;5031951;28;20056;-64
2023/06/17 03:49:02;;;;;;;30.90;20.15;;;16.10;99.90;;;;;;5032396;28;20041;-64
2023/06/17 03:51:27;;;;;;;29.90;20.27;;;16.10;99.90;;;;;;5032194;28;20037;-64
2023/06/17 03:53:53;;;;;;;31.85;20.77;;;16.10;99.90;;;;;;5031988;28;20044;-64
2023/06/17 03:56:19;;;;;;;28.83;20.48;;;16.00;99.90;;;;;;5032156;28;20045;-64
2023/06/17 03:58:44;;;;;;;32.25;21.40;;;16.00;99.90;;;;;;5032054;28;20462;-64
2023/06/17 04:01:12;;;;;;;36.22;23.02;;;16.00;99.90;;;;;;5043172;22;20064;-65
2023/06/17 04:03:40;;;;;;;31.88;21.75;;;16.00;99.90;;;;;;5032352;28;20044;-65
2023/06/17 04:06:06;;;;;;;30.83;20.92;;;16.10;99.90;;;;;;5012471;28;20080;-65
2023/06/17 04:08:32;;;;;;;30.95;21.67;;;16.10;99.90;;;;;;5030260;28;20129;-65
2023/06/17 04:10:59;;;;;;;29.83;20.45;;;16.10;99.90;;;;;;5031653;28;20037;-65
2023/06/17 04:13:24;;;;;;;32.47;22.15;;;16.10;99.90;;;;;;5031474;28;20063;-64
2023/06/17 04:15:50;;;;;;;34.90;21.30;;;16.10;99.90;;;;;;5031696;28;20488;-64
2023/06/17 04:18:16;;;;;;;32.85;21.52;;;16.10;99.90;;;;;;5030637;28;20049;-65
2023/06/17 04:20:41;;;;;;;36.42;21.98;;;16.00;99.90;;;;;;5031386;28;20511;-65
2023/06/17 04:23:07;;;;;;;30.88;22.02;;;16.00;99.90;;;;;;5031709;28;20033;-65
2023/06/17 04:25:36;;;;;;;35.50;22.45;;;16.10;99.90;;;;;;5030964;28;20128;-65
2023/06/17 04:28:06;;;;;;;31.17;21.27;;;16.10;99.90;;;;;;5031930;28;20112;-64
2023/06/17 04:30:33;;;;;;;33.67;21.73;;;16.00;99.90;;;;;;5031846;28;20050;-65
2023/06/17 04:33:00;;;;;;;36.92;22.52;;;16.00;99.90;;;;;;5031797;28;20087;-64
2023/06/17 04:35:26;;;;;;;31.23;20.67;;;16.00;99.90;;;;;;5031515;28;20045;-65
2023/06/17 04:37:56;;;;;;;31.60;21.77;;;16.00;99.90;;;;;;5031611;28;20041;-64
2023/06/17 04:40:23;;;;;;;29.10;19.85;;;16.10;99.90;;;;;;5031529;28;20409;-64
2023/06/17 04:42:49;;;;;;;35.38;23.27;;;16.00;99.90;;;;;;5031553;28;20550;-65
2023/06/17 04:45:17;;;;;;;34.30;21.30;;;16.00;99.90;;;;;;5031445;28;20029;-65
2023/06/17 04:47:44;;;;;;;31.67;22.30;;;16.00;99.90;;;;;;5031743;28;20080;-65
2023/06/17 04:50:10;;;;;;;31.40;21.02;;;15.90;99.90;;;;;;5031617;28;20037;-65
2023/06/17 04:52:36;;;;;;;35.08;22.27;;;15.90;99.90;;;;;;5031203;28;20111;-65
2023/06/17 04:55:02;;;;;;;32.22;22.10;;;16.00;99.90;;;;;;5030021;28;20053;-65
2023/06/17 04:57:27;;;;;;;33.05;22.15;;;16.00;99.90;;;;;;5030519;28;20116;-64
2023/06/17 04:59:53;;;;;;;34.75;22.42;;;16.00;99.90;;;;;;5013713;28;20053;-64
2023/06/17 05:02:18;;;;;;;35.63;22.48;;;16.00;99.90;;;;;;5031311;28;20136;-65
2023/06/17 05:04:44;;;;;;;32.28;21.55;;;16.00;99.90;;;;;;5030669;28;20483;-64
2023/06/17 05:07:09;;;;;;;35.55;21.48;;;16.10;99.90;;;;;;5031002;28;20412;-65
2023/06/17 05:09:35;;;;;;;33.55;21.05;;;16.10;99.90;;;;;;5030841;28;20106;-65
2023/06/17 05:12:01;;;;;;;34.35;21.00;;;16.10;99.90;;;;;;5030989;28;20033;-64
2023/06/17 05:14:26;;;;;;;36.08;21.83;;;16.10;99.90;;;;;;5031236;28;20037;-65
2023/06/17 05:16:52;;;;;;;33.03;20.80;;;16.00;99.90;;;;;;5031577;28;20542;-65
2023/06/17 05:19:17;;;;;;;33.42;20.80;;;16.00;99.90;;;;;;5034961;28;20126;-65
2023/06/17 05:21:43;;;;;;;32.92;20.58;;;16.00;99.90;;;;;;5034820;28;20129;-65
2023/06/17 05:24:08;;;;;;;32.90;21.15;;;16.00;99.90;;;;;;5034722;28;20041;-65
2023/06/17 05:26:34;;;;;;;28.98;20.23;;;16.10;99.90;;;;;;5034495;28;20038;-65
2023/06/17 05:28:59;;;;;;;30.85;19.70;;;16.10;99.90;;;;;;5033468;28;20052;-64
2023/06/17 05:31:25;;;;;;;30.25;19.15;;;16.20;99.90;;;;;;5033124;28;20038;-65
2023/06/17 05:33:50;;;;;;;27.63;18.67;;;16.20;99.90;;;;;;5034092;28;20044;-65
2023/06/17 05:36:16;;;;;;;26.27;17.63;;;16.20;99.90;;;;;;5033963;28;20045;-65
2023/06/17 05:38:42;;;;;;;30.05;19.50;;;16.20;99.90;;;;;;5034752;28;20045;-65
2023/06/17 05:41:07;;;;;;;28.67;19.17;;;16.20;99.90;;;;;;5034625;28;20079;-64
2023/06/17 05:43:33;;;;;;;30.77;18.48;;;16.20;99.90;;;;;;5033960;28;20128;-65
2023/06/17 05:45:58;;;;;;;28.95;18.88;;;16.20;99.90;;;;;;5033959;28;20050;-65
2023/06/17 05:48:24;;;;;;;29.58;19.92;;;16.20;99.90;;;;;;5034530;28;20030;-65
2023/06/17 05:50:49;;;;;;;30.95;19.98;;;16.10;99.90;;;;;;5034221;28;20554;-65
2023/06/17 05:53:15;;;;;;;28.17;19.10;;;16.10;99.90;;;;;;5033631;28;20037;-65
2023/06/17 05:55:41;;;;;;;30.38;20.10;;;16.10;99.90;;;;;;5034038;28;20037;-65
2023/06/17 05:58:06;;;;;;;29.63;20.08;;;16.20;99.90;;;;;;5034425;28;20163;-65
2023/06/17 06:00:32;;;;;;;30.75;19.88;;;16.20;99.90;;;;;;5034087;28;20412;-65
2023/06/17 06:02:58;;;;;;;33.10;20.15;;;16.20;99.90;;;;;;5034092;28;20124;-65
2023/06/17 06:05:23;;;;;;;33.05;21.27;;;16.30;99.90;;;;;;5033727;28;20037;-64
2023/06/17 06:07:49;;;;;;;32.70;19.50;;;16.40;99.90;;;;;;5034030;28;20073;-65
2023/06/17 06:10:15;;;;;;;29.20;18.10;;;16.40;99.90;;;;;;5034169;28;20038;-65
2023/06/17 06:12:41;;;;;;;30.15;19.95;;;16.40;99.90;;;;;;5032775;28;20041;-65
2023/06/17 06:15:07;;;;;;;26.65;18.80;;;16.50;99.90;;;;;;5033850;28;20388;-65
2023/06/17 06:17:33;;;;;;;30.63;19.90;;;16.50;99.90;;;;;;5033558;28;20030;-64
2023/06/17 06:19:59;;;;;;;31.73;20.35;;;16.40;99.90;;;;;;5033817;28;20457;-65
2023/06/17 06:22:25;;;;;;;31.55;20.60;;;16.30;99.90;;;;;;5033237;28;20419;-65
2023/06/17 06:24:50;;;;;;;29.42;19.65;;;16.30;99.90;;;;;;5031834;28;20059;-65
2023/06/17 06:27:16;;;;;;;31.13;21.35;;;16.30;99.90;;;;;;5033345;28;20041;-64
2023/06/17 06:29:41;;;;;;;31.67;20.60;;;16.30;99.90;;;;;;5031593;28;20043;-65
2023/06/17 06:32:07;;;;;;;34.13;21.85;;;16.30;99.90;;;;;;5033485;28;20044;-64
2023/06/17 06:34:33;;;;;;;30.58;21.27;;;16.40;99.90;;;;;;5032879;28;20040;-65
2023/06/17 06:36:59;;;;;;;32.72;21.08;;;16.30;99.90;;;;;;5033033;28;20637;-65
2023/06/17 06:39:25;;;;;;;34.05;21.90;;;16.50;99.90;;;;;;5033813;28;20079;-64
2023/06/17 06:41:52;;;;;;;30.08;21.00;;;16.50;99.90;;;;;;5033473;28;20041;-65
2023/06/17 06:44:17;;;;;;;30.42;20.48;;;16.60;99.90;;;;;;5033240;28;20090;-65
2023/06/17 06:46:44;;;;;;;29.85;19.60;;;16.60;99.90;;;;;;5033319;28;20554;-65
2023/06/17 06:49:09;;;;;;;28.45;19.80;;;16.60;99.90;;;;;;5033358;28;20573;-65
2023/06/17 06:51:36;;;;;;;30.10;20.45;;;16.60;99.90;;;;;;5032004;28;20045;-65
2023/06/17 06:54:02;;;;;;;29.77;20.42;;;16.70;99.90;;;;;;5033150;28;20045;-65
2023/06/17 06:56:28;;;;;;;30.13;20.88;;;16.70;99.90;;;;;;5033154;28;20047;-65
2023/06/17 06:58:56;;;;;;;29.58;20.80;;;16.70;99.90;;;;;;5032742;28;20037;-65
2023/06/17 07:01:22;;;;;;;31.10;20.42;;;16.70;99.90;;;;;;5031362;28;20128;-65
2023/06/17 07:03:48;;;;;;;28.15;20.33;;;16.70;99.90;;;;;;5032630;28;20061;-65
2023/06/17 07:06:13;;;;;;;29.60;20.45;;;16.80;99.90;;;;;;5032445;28;20129;-64
2023/06/17 07:08:39;;;;;;;32.00;21.70;;;16.80;99.90;;;;;;5033131;28;20052;-65
2023/06/17 07:11:05;;;;;;;29.52;20.83;;;16.90;99.90;;;;;;5031705;28;20041;-65
2023/06/17 07:13:31;;;;;;;31.83;20.55;;;17.00;99.90;;;;;;5031248;28;20120;-65
2023/06/17 07:15:57;;;;;;;29.98;21.17;;;17.00;99.90;;;;;;5032846;28;20037;-65
2023/06/17 07:18:22;;;;;;;24.20;18.63;;;17.10;99.90;;;;;;5032713;28;20049;-65
2023/06/17 07:20:48;;;;;;;30.48;20.77;;;17.10;99.90;;;;;;5032605;28;20060;-65
2023/06/17 07:23:14;;;;;;;30.85;20.40;;;17.20;99.90;;;;;;5032519;28;20479;-65
2023/06/17 07:25:39;;;;;;;29.85;20.00;;;17.20;99.90;;;;;;5032584;28;20128;-65
2023/06/17 07:28:07;;;;;;;29.45;20.77;;;17.40;99.90;;;;;;5031122;28;20037;-64
2023/06/17 07:30:33;;;;;;;29.35;20.20;;;17.40;99.90;;;;;;5032591;28;20052;-64
2023/06/17 07:32:58;;;;;;;28.42;20.88;;;17.50;99.90;;;;;;5031946;28;20407;-65
2023/06/17 07:35:24;;;;;;;28.58;19.90;;;17.50;99.90;;;;;;5032108;28;20042;-65
2023/06/17 07:37:51;;;;;;;32.17;21.73;;;17.50;99.90;;;;;;5032257;28;20041;-65
2023/06/17 07:40:17;;;;;;;31.10;21.20;;;17.60;99.90;;;;;;5031898;28;20037;-65
2023/06/17 07:42:43;;;;;;;32.67;22.60;;;17.50;99.90;;;;;;5032037;28;20641;-65
2023/06/17 07:45:09;;;;;;;33.70;21.17;;;17.70;99.90;;;;;;5031782;28;20038;-64
2023/06/17 07:47:35;;;;;;;32.05;22.08;;;17.60;99.90;;;;;;5032094;28;20064;-65
2023/06/17 07:50:01;;;;;;;34.42;21.17;;;17.60;99.90;;;;;;5032245;28;20164;-65
2023/06/17 07:52:27;;;;;;;32.63;22.50;;;17.70;99.90;;;;;;5032315;28;20073;-65
2023/06/17 07:54:53;;;;;;;30.20;21.73;;;17.70;99.90;;;;;;5031621;28;20538;-65
2023/06/17 07:57:18;;;;;;;30.10;20.10;;;17.70;99.90;;;;;;5030256;28;20049;-65
2023/06/17 07:59:44;;;;;;;30.73;21.35;;;17.80;99.90;;;;;;5032179;28;20077;-65
2023/06/17 08:02:10;;;;;;;30.85;20.30;;;17.80;99.90;;;;;;5030525;28;20044;-65
2023/06/17 08:04:37;;;;;;;29.65;19.92;;;17.90;99.90;;;;;;5031780;28;20049;-65
2023/06/17 08:07:04;;;;;;;28.08;21.23;;;18.00;99.90;;;;;;5032038;28;20048;-65
2023/06/17 08:09:29;;;;;;;26.45;20.48;;;18.20;99.90;;;;;;5032187;28;20041;-65
2023/06/17 08:11:55;;;;;;;26.80;19.40;;;18.30;99.90;;;;;;5031848;28;20043;-65
2023/06/17 08:14:21;;;;;;;29.80;19.35;;;18.30;99.90;;;;;;5031495;28;20038;-65
2023/06/17 08:16:47;;;;;;;30.08;19.80;;;18.60;99.90;;;;;;5031704;28;20048;-65
2023/06/17 08:19:12;;;;;;;22.67;18.50;;;18.90;99.90;;;;;;5031999;28;20042;-65
2023/06/17 08:21:41;;;;;;;23.33;17.88;;;19.00;99.90;;;;;;5031593;28;20037;-65
2023/06/17 08:24:24;;;;;;;26.88;18.88;;;19.10;99.90;;;;;;5031316;28;20041;-65
2023/06/17 08:26:50;;;;;;;29.17;19.75;;;19.20;99.90;;;;;;5031709;28;20041;-65
2023/06/17 08:29:17;;;;;;;27.50;19.00;;;19.30;99.90;;;;;;5031787;28;20041;-65
2023/06/17 08:31:44;;;;;;;27.13;18.35;;;19.30;99.90;;;;;;5030296;28;20384;-65
2023/06/17 08:34:10;;;;;;;25.35;19.08;;;19.50;99.90;;;;;;5030138;28;20423;-65
2023/06/17 08:36:40;;;;;;;25.80;18.88;;;19.70;99.90;;;;;;5031759;28;20045;-65
2023/06/17 08:39:06;;;;;;;26.02;19.20;;;19.90;99.90;;;;;;5030259;28;20484;-65
2023/06/17 08:41:42;;;;;;;27.33;18.98;;;20.00;99.90;;;;;;5032069;28;20038;-65
2023/06/17 08:44:11;;;;;;;24.48;17.83;;;20.20;99.90;;;;;;5029731;28;20120;-65
2023/06/17 08:46:38;;;;;;;25.42;17.20;;;20.40;99.90;;;;;;5030918;28;20045;-65
2023/06/17 08:49:04;;;;;;;22.15;17.65;;;20.60;99.90;;;;;;5031364;28;20437;-65
2023/06/17 08:51:30;;;;;;;24.98;18.13;;;20.80;99.90;;;;;;5031592;28;20034;-65
2023/06/17 08:53:56;;;;;;;22.35;16.98;;;21.00;99.90;;;;;;5034998;28;20038;-65
2023/06/17 08:56:22;;;;;;;22.73;17.38;;;21.20;99.90;;;;;;5035363;28;20053;-65
2023/06/17 08:58:49;;;;;;;25.50;18.25;;;21.30;99.90;;;;;;5035574;28;20048;-65
2023/06/17 09:01:16;;;;;;;26.08;17.95;;;21.40;99.90;;;;;;5033932;28;20095;-65
2023/06/17 09:03:43;;;;;;;22.13;16.42;;;21.60;99.90;;;;;;5035001;28;20049;-65
2023/06/17 09:06:25;;;;;;;21.00;17.08;;;21.50;99.90;;;;;;5035303;28;20084;-65
2023/06/17 09:08:51;;;;;;;21.83;17.38;;;21.50;99.90;;;;;;5035177;28;20084;-65
2023/06/17 09:11:22;;;;;;;22.92;16.60;;;21.60;99.90;;;;;;5035131;28;20473;-65
2023/06/17 09:13:50;;;;;;;26.02;18.33;;;21.80;99.90;;;;;;5034987;28;20030;-65
2023/06/17 09:16:26;;;;;;;20.88;16.05;;;21.80;99.90;;;;;;5035237;28;20045;-65
2023/06/17 09:18:59;;;;;;;26.67;17.77;;;21.80;99.90;;;;;;5035119;28;20046;-65
2023/06/17 09:21:26;;;;;;;21.63;16.95;;;21.90;99.90;;;;;;5034742;28;20046;-65
2023/06/17 09:23:57;;;;;;;24.48;16.88;;;22.00;99.90;;;;;;5034823;28;20041;-65
2023/06/17 09:26:29;;;;;;;21.17;16.40;;;22.20;99.90;;;;;;5035170;28;20085;-65
2023/06/17 09:29:03;;;;;;;30.45;18.05;;;22.20;99.90;;;;;;5033735;28;20128;-65
2023/06/17 09:31:30;;;;;;;22.55;16.25;;;22.40;99.90;;;;;;5034793;28;20084;-65
2023/06/17 09:33:58;;;;;;;24.50;15.15;;;22.40;99.90;;;;;;5032997;28;20445;-65
2023/06/17 09:36:25;;;;;;;24.13;16.83;;;22.50;99.90;;;;;;5034966;28;20037;-65
2023/06/17 09:38:51;;;;;;;20.38;16.90;;;22.70;99.90;;;;;;5034753;28;20411;-65
2023/06/17 09:41:20;;;;;;;24.20;16.50;;;22.70;99.90;;;;;;5034668;28;20052;-65
2023/06/17 09:43:53;;;;;;;19.90;15.40;;;22.80;99.90;;;;;;5034374;28;20083;-65
2023/06/17 09:46:29;;;;;;;20.15;15.40;;;22.80;99.90;;;;;;5034286;28;20053;-65
2023/06/17 09:48:58;;;;;;;19.40;13.57;;;22.90;99.90;;;;;;5034744;28;20498;-65
2023/06/17 09:51:25;;;;;;;18.80;13.80;;;23.20;99.90;;;;;;5034489;28;20033;-65
2023/06/17 09:53:52;;;;;;;20.33;14.70;;;23.40;99.90;;;;;;5034286;28;20048;-65
2023/06/17 09:56:19;;;;;;;22.02;15.43;;;23.40;99.90;;;;;;5034420;28;20037;-65
2023/06/17 09:58:45;;;;;;;22.48;15.13;;;23.20;99.90;;;;;;5033306;28;20045;-65
2023/06/17 10:01:12;;;;;;;18.45;14.70;;;23.20;99.90;;;;;;5050092;22;20049;-66
2023/06/17 10:03:39;;;;;;;21.58;14.23;;;23.20;99.90;;;;;;5051187;28;20044;-63
2023/06/17 10:06:11;;;;;;;21.58;15.77;;;23.20;99.90;;;;;;5045698;28;20064;-64
2023/06/17 10:08:40;;;;;;;18.73;14.85;;;23.30;99.90;;;;;;5054094;28;20043;-63
2023/06/17 10:11:06;;;;;;;19.42;15.00;;;23.40;99.90;;;;;;5053612;28;20041;-64
2023/06/17 10:13:40;;;;;;;20.15;14.60;;;23.50;99.90;;;;;;5051921;28;20548;-63
2023/06/17 10:16:10;;;;;;;21.92;15.07;;;23.60;99.90;;;;;;5053965;28;20399;-63
2023/06/17 10:18:38;;;;;;;19.50;14.73;;;23.50;99.90;;;;;;5053358;28;20072;-65
2023/06/17 10:21:08;;;;;;;17.08;14.00;;;23.60;99.90;;;;;;5053886;28;20049;-64
2023/06/17 10:23:36;;;;;;;17.40;13.90;;;23.60;99.90;;;;;;5053582;28;20037;-64
2023/06/17 10:26:06;;;;;;;18.55;14.55;;;23.60;99.90;;;;;;5051557;28;20057;-65
2023/06/17 10:28:53;;;;;;;17.20;13.93;;;23.60;99.90;;;;;;5038737;28;20073;-65
2023/06/17 10:31:27;;;;;;;16.13;13.13;;;23.80;99.90;;;;;;5032347;28;20049;-65
2023/06/17 10:33:53;;;;;;;16.02;11.75;;;24.00;99.90;;;;;;5031680;28;20452;-65
2023/06/17 10:36:22;;;;;;;15.43;11.70;;;24.10;99.90;;;;;;5033349;28;20472;-64
2023/06/17 10:38:55;;;;;;;18.13;12.32;;;24.30;99.90;;;;;;5033460;28;20041;-65
2023/06/17 10:41:21;;;;;;;17.17;12.48;;;24.60;99.90;;;;;;5033540;28;20041;-64
2023/06/17 10:43:49;;;;;;;14.80;11.63;;;24.70;99.90;;;;;;5032503;28;20079;-65
2023/06/17 10:46:24;;;;;;;15.65;10.98;;;24.80;99.90;;;;;;5033308;28;20048;-65
2023/06/17 10:48:49;;;;;;;15.40;10.80;;;24.90;99.50;;;;;;5033228;28;20040;-65
2023/06/17 10:51:15;;;;;;;15.45;11.77;;;25.00;99.10;;;;;;5033509;28;20033;-64
2023/06/17 10:53:47;;;;;;;15.40;11.68;;;25.10;98.40;;;;;;5033118;28;20037;-64
2023/06/17 10:56:12;;;;;;;16.27;11.65;;;25.00;97.70;;;;;;5033243;28;20038;-64
2023/06/17 10:58:44;;;;;;;16.70;11.55;;;24.90;97.60;;;;;;5033126;28;20107;-65
2023/06/17 11:01:11;;;;;;;16.08;11.15;;;24.90;97.40;;;;;;5032912;28;20033;-64
2023/06/17 11:03:37;;;;;;;15.77;11.32;;;25.00;97.80;;;;;;5032687;28;20403;-65
2023/06/17 11:06:05;;;;;;;14.05;11.40;;;25.10;97.90;;;;;;5031629;28;20125;-64
2023/06/17 11:08:33;;;;;;;15.52;10.85;;;25.20;97.00;;;;;;5031746;28;20037;-65
2023/06/17 11:11:13;;;;;;;17.27;11.38;;;25.30;96.30;;;;;;5031587;28;20041;-64
2023/06/17 11:13:41;;;;;;;11.43;10.07;;;25.40;95.60;;;;;;5032656;28;20029;-65
2023/06/17 11:16:07;;;;;;;15.32;10.65;;;25.40;95.50;;;;;;5014336;28;20041;-65
2023/06/17 11:18:41;;;;;;;11.80;10.20;;;25.60;94.90;;;;;;5032983;28;20044;-65
2023/06/17 11:21:08;;;;;;;13.48;9.75;;;25.80;94.30;;;;;;5031469;28;20073;-65
2023/06/17 11:23:37;;;;;;;14.55;9.68;;;26.00;93.80;;;;;;5031259;28;20041;-64
2023/06/17 11:26:04;;;;;;;11.07;9.27;;;26.10;93.20;;;;;;5030823;28;20454;-65
2023/06/17 11:28:31;;;;;;;11.85;8.05;;;26.20;92.60;;;;;;5032155;28;20495;-65
2023/06/17 11:30:57;;;;;;;9.38;8.02;;;26.40;91.40;;;;;;5032607;28;20043;-65
2023/06/17 11:33:23;;;;;;;12.30;8.02;;;26.40;90.30;;;;;;5031518;28;20121;-64
2023/06/17 11:35:52;;;;;;;10.88;8.60;;;26.50;90.10;;;;;;5032525;28;20040;-65
2023/06/17 11:38:18;;;;;;;11.45;8.98;;;26.50;89.20;;;;;;5032024;28;20041;-65
2023/06/17 11:40:44;;;;;;;12.65;8.70;;;26.50;88.50;;;;;;5032287;28;20510;-65
2023/06/17 11:43:10;;;;;;;12.00;8.05;;;26.50;88.10;;;;;;5031997;28;20495;-64
2023/06/17 11:45:37;;;;;;;11.07;8.60;;;26.60;86.80;;;;;;5032232;28;20095;-65
2023/06/17 11:48:05;;;;;;;9.57;7.72;;;26.60;85.70;;;;;;5031080;28;20049;-65
2023/06/17 11:50:31;;;;;;;10.23;7.47;;;26.70;86.10;;;;;;5032272;28;20038;-65
2023/06/17 11:52:57;;;;;;;11.77;8.05;;;26.80;84.70;;;;;;5032188;28;20033;-65
2023/06/17 11:55:35;;;;;;;8.43;6.80;;;27.00;82.90;;;;;;5030502;28;20042;-65
2023/06/17 11:58:03;;;;;;;11.18;8.13;;;27.10;82.30;;;;;;5030851;28;20048;-65
2023/06/17 12:00:30;;;;;;;9.85;7.10;;;27.20;81.00;;;;;;5030849;28;20041;-65
2023/06/17 12:02:57;;;;;;;7.88;6.90;;;27.20;79.40;;;;;;5030875;28;20149;-65
2023/06/17 12:05:27;;;;;;;10.57;7.13;;;27.30;77.70;;;;;;5030405;28;20080;-65
2023/06/17 12:07:53;;;;;;;9.80;6.90;;;27.30;76.90;;;;;;5014443;28;20041;-65
2023/06/17 12:10:18;;;;;;;9.70;6.47;;;27.30;75.50;;;;;;5030684;28;20088;-65
2023/06/17 12:12:45;;;;;;;14.73;8.05;;;27.20;75.00;;;;;;5031837;28;20071;-65
2023/06/17 12:15:12;;;;;;;9.43;6.85;;;27.20;75.00;;;;;;5030414;28;20112;-65
2023/06/17 12:17:48;;;;;;;11.95;7.10;;;27.20;74.40;;;;;;5031858;28;20053;-65
2023/06/17 12:20:16;;;;;;;9.98;7.50;;;27.20;75.40;;;;;;5032020;28;20072;-65
2023/06/17 12:22:43;;;;;;;10.43;7.60;;;27.30;76.00;;;;;;5030412;28;20075;-65
2023/06/17 12:25:10;;;;;;;12.00;7.97;;;27.40;75.40;;;;;;5030272;28;20499;-65
2023/06/17 12:27:35;;;;;;;9.60;7.03;;;27.40;76.80;;;;;;5031900;28;20042;-64